Terminal Aerodrome Forecast
Issued by NWS

Home | Current Version | Previous Version | Text Only | Print | Product List | Glossary On
Versions: 1 2 3 4 5 6 7 8 9 10 11 12 13 14 15 16 17 18
515
FTAK31 PAJN 240520
TAFAPG
TAF
PAPG 240520Z 2406/2506 VRB03KT P6SM BKN050
     FM241200 00000KT 4SM BR SCT005 BKN035 OVC050
      TEMPO 2412/2415 2SM BR BKN005
     FM241700 VRB03KT P6SM OVC050
     FM250000 08005KT P6SM VCSH OVC040
      AMD LTD TO CLD VIS AND WIND 2406/2415=

USA.gov is the U.S. government's official web portal to all federal, state and local government web resources and services.